sensor_id;sensor_type;location;lat;lon;timestamp;P1;durP1;ratioP1;P2;durP2;ratioP2
50213;SDS011;36103;54.176;12.070;2022-12-05T00:00:13;16.67;;;10.87;;
50213;SDS011;36103;54.176;12.070;2022-12-05T00:01:16;19.63;;;10.70;;
50213;SDS011;36103;54.176;12.070;2022-12-05T00:02:18;19.50;;;10.70;;
50213;SDS011;36103;54.176;12.070;2022-12-05T00:03:20;17.40;;;10.87;;
50213;SDS011;36103;54.176;12.070;2022-12-05T00:04:21;15.53;;;10.53;;
50213;SDS011;36103;54.176;12.070;2022-12-05T00:05:24;17.43;;;10.30;;
50213;SDS011;36103;54.176;12.070;2022-12-05T00:06:24;14.70;;;10.13;;
50213;SDS011;36103;54.176;12.070;2022-12-05T00:07:27;16.80;;;9.80;;
50213;SDS011;36103;54.176;12.070;2022-12-05T00:08:29;17.37;;;10.60;;
50213;SDS011;36103;54.176;12.070;2022-12-05T00:09:30;18.20;;;11.23;;
50213;SDS011;36103;54.176;12.070;2022-12-05T00:10:30;17.67;;;10.00;;
50213;SDS011;36103;54.176;12.070;2022-12-05T00:11:33;16.93;;;10.10;;
50213;SDS011;36103;54.176;12.070;2022-12-05T00:12:35;19.80;;;10.93;;
50213;SDS011;36103;54.176;12.070;2022-12-05T00:13:36;14.80;;;9.57;;
50213;SDS011;36103;54.176;12.070;2022-12-05T00:14:39;17.43;;;9.87;;
50213;SDS011;36103;54.176;12.070;2022-12-05T00:15:40;18.40;;;10.57;;
50213;SDS011;36103;54.176;12.070;2022-12-05T00:16:41;17.23;;;10.60;;
50213;SDS011;36103;54.176;12.070;2022-12-05T00:17:43;14.37;;;9.93;;
50213;SDS011;36103;54.176;12.070;2022-12-05T00:18:43;18.67;;;10.83;;
50213;SDS011;36103;54.176;12.070;2022-12-05T00:19:45;15.50;;;10.13;;
50213;SDS011;36103;54.176;12.070;2022-12-05T00:20:47;14.60;;;10.07;;
50213;SDS011;36103;54.176;12.070;2022-12-05T00:21:49;16.70;;;10.30;;
50213;SDS011;36103;54.176;12.070;2022-12-05T00:22:49;17.77;;;9.97;;
50213;SDS011;36103;54.176;12.070;2022-12-05T00:23:51;19.10;;;10.23;;
50213;SDS011;36103;54.176;12.070;2022-12-05T00:24:53;14.30;;;9.83;;
50213;SDS011;36103;54.176;12.070;2022-12-05T00:25:54;16.17;;;10.20;;
50213;SDS011;36103;54.176;12.070;2022-12-05T00:26:55;17.43;;;10.93;;
50213;SDS011;36103;54.176;12.070;2022-12-05T00:27:56;15.57;;;9.13;;
50213;SDS011;36103;54.176;12.070;2022-12-05T00:28:57;17.63;;;10.20;;
50213;SDS011;36103;54.176;12.070;2022-12-05T00:29:58;17.57;;;10.10;;
50213;SDS011;36103;54.176;12.070;2022-12-05T00:31:00;15.80;;;10.23;;
50213;SDS011;36103;54.176;12.070;2022-12-05T00:32:01;17.87;;;10.03;;
50213;SDS011;36103;54.176;12.070;2022-12-05T00:33:03;15.57;;;9.20;;
50213;SDS011;36103;54.176;12.070;2022-12-05T00:34:03;16.53;;;9.77;;
50213;SDS011;36103;54.176;12.070;2022-12-05T00:35:05;16.13;;;9.63;;
50213;SDS011;36103;54.176;12.070;2022-12-05T00:36:08;15.90;;;9.80;;
50213;SDS011;36103;54.176;12.070;2022-12-05T00:37:10;16.80;;;9.63;;
50213;SDS011;36103;54.176;12.070;2022-12-05T00:38:11;15.10;;;10.13;;
50213;SDS011;36103;54.176;12.070;2022-12-05T00:39:12;14.40;;;9.53;;
50213;SDS011;36103;54.176;12.070;2022-12-05T00:40:14;16.60;;;9.80;;
50213;SDS011;36103;54.176;12.070;2022-12-05T00:41:16;13.60;;;9.37;;
50213;SDS011;36103;54.176;12.070;2022-12-05T00:42:18;16.50;;;10.17;;
50213;SDS011;36103;54.176;12.070;2022-12-05T00:43:19;13.53;;;9.37;;
50213;SDS011;36103;54.176;12.070;2022-12-05T00:44:20;14.60;;;9.73;;
50213;SDS011;36103;54.176;12.070;2022-12-05T00:45:21;14.70;;;9.17;;
50213;SDS011;36103;54.176;12.070;2022-12-05T00:46:22;16.20;;;10.83;;
50213;SDS011;36103;54.176;12.070;2022-12-05T00:47:24;16.30;;;9.30;;
50213;SDS011;36103;54.176;12.070;2022-12-05T00:48:25;14.87;;;9.20;;
50213;SDS011;36103;54.176;12.070;2022-12-05T00:49:26;13.97;;;9.03;;
50213;SDS011;36103;54.176;12.070;2022-12-05T00:50:27;14.37;;;9.57;;
50213;SDS011;36103;54.176;12.070;2022-12-05T00:51:30;14.23;;;8.67;;
50213;SDS011;36103;54.176;12.070;2022-12-05T00:52:33;13.80;;;8.73;;
50213;SDS011;36103;54.176;12.070;2022-12-05T00:53:34;13.87;;;9.43;;
50213;SDS011;36103;54.176;12.070;2022-12-05T00:54:35;14.97;;;9.53;;
50213;SDS011;36103;54.176;12.070;2022-12-05T00:55:36;14.03;;;9.20;;
50213;SDS011;36103;54.176;12.070;2022-12-05T00:56:37;14.43;;;9.70;;
50213;SDS011;36103;54.176;12.070;2022-12-05T00:57:38;14.10;;;8.93;;
50213;SDS011;36103;54.176;12.070;2022-12-05T00:58:39;14.67;;;9.57;;
50213;SDS011;36103;54.176;12.070;2022-12-05T00:59:41;13.67;;;9.13;;
50213;SDS011;36103;54.176;12.070;2022-12-05T01:00:42;14.87;;;9.97;;
50213;SDS011;36103;54.176;12.070;2022-12-05T01:01:43;16.43;;;10.00;;
50213;SDS011;36103;54.176;12.070;2022-12-05T01:02:46;14.00;;;8.80;;
50213;SDS011;36103;54.176;12.070;2022-12-05T01:03:47;12.67;;;8.83;;
50213;SDS011;36103;54.176;12.070;2022-12-05T01:04:48;15.70;;;9.70;;
50213;SDS011;36103;54.176;12.070;2022-12-05T01:05:49;14.10;;;9.30;;
50213;SDS011;36103;54.176;12.070;2022-12-05T01:06:54;15.20;;;10.30;;
50213;SDS011;36103;54.176;12.070;2022-12-05T01:07:55;13.40;;;9.10;;
50213;SDS011;36103;54.176;12.070;2022-12-05T01:08:57;15.70;;;9.40;;
50213;SDS011;36103;54.176;12.070;2022-12-05T01:09:58;14.27;;;9.43;;
50213;SDS011;36103;54.176;12.070;2022-12-05T01:10:59;15.63;;;9.73;;
50213;SDS011;36103;54.176;12.070;2022-12-05T01:12:00;14.43;;;9.53;;
50213;SDS011;36103;54.176;12.070;2022-12-05T01:13:02;15.97;;;10.37;;
50213;SDS011;36103;54.176;12.070;2022-12-05T01:14:02;14.33;;;9.70;;
50213;SDS011;36103;54.176;12.070;2022-12-05T01:15:04;13.50;;;9.30;;
50213;SDS011;36103;54.176;12.070;2022-12-05T01:16:06;14.27;;;9.60;;
50213;SDS011;36103;54.176;12.070;2022-12-05T01:17:13;13.17;;;9.30;;
50213;SDS011;36103;54.176;12.070;2022-12-05T01:18:14;16.77;;;10.93;;
50213;SDS011;36103;54.176;12.070;2022-12-05T01:19:17;16.10;;;10.37;;
50213;SDS011;36103;54.176;12.070;2022-12-05T01:20:19;17.07;;;10.17;;
50213;SDS011;36103;54.176;12.070;2022-12-05T01:21:20;14.33;;;8.83;;
50213;SDS011;36103;54.176;12.070;2022-12-05T01:22:22;14.57;;;9.20;;
50213;SDS011;36103;54.176;12.070;2022-12-05T01:23:23;14.20;;;9.57;;
50213;SDS011;36103;54.176;12.070;2022-12-05T01:24:24;14.00;;;9.63;;
50213;SDS011;36103;54.176;12.070;2022-12-05T01:25:27;13.90;;;9.93;;
50213;SDS011;36103;54.176;12.070;2022-12-05T01:26:27;14.83;;;9.27;;
50213;SDS011;36103;54.176;12.070;2022-12-05T01:27:29;15.80;;;9.70;;
50213;SDS011;36103;54.176;12.070;2022-12-05T01:28:29;14.60;;;9.60;;
50213;SDS011;36103;54.176;12.070;2022-12-05T01:29:31;14.33;;;9.30;;
50213;SDS011;36103;54.176;12.070;2022-12-05T01:30:31;11.80;;;8.63;;
50213;SDS011;36103;54.176;12.070;2022-12-05T01:31:34;14.43;;;9.50;;
50213;SDS011;36103;54.176;12.070;2022-12-05T01:32:37;15.57;;;9.90;;
50213;SDS011;36103;54.176;12.070;2022-12-05T01:33:37;13.93;;;9.40;;
50213;SDS011;36103;54.176;12.070;2022-12-05T01:34:38;14.20;;;8.77;;
50213;SDS011;36103;54.176;12.070;2022-12-05T01:35:39;14.03;;;9.60;;
50213;SDS011;36103;54.176;12.070;2022-12-05T01:36:41;13.93;;;9.17;;
50213;SDS011;36103;54.176;12.070;2022-12-05T01:37:43;14.43;;;9.23;;
50213;SDS011;36103;54.176;12.070;2022-12-05T01:38:45;14.80;;;9.37;;
50213;SDS011;36103;54.176;12.070;2022-12-05T01:39:45;14.20;;;9.70;;
50213;SDS011;36103;54.176;12.070;2022-12-05T01:40:48;17.47;;;10.47;;
50213;SDS011;36103;54.176;12.070;2022-12-05T01:41:49;14.83;;;9.20;;
50213;SDS011;36103;54.176;12.070;2022-12-05T01:42:50;16.67;;;10.13;;
50213;SDS011;36103;54.176;12.070;2022-12-05T01:43:52;14.23;;;9.60;;
50213;SDS011;36103;54.176;12.070;2022-12-05T01:44:58;12.30;;;9.17;;
50213;SDS011;36103;54.176;12.070;2022-12-05T01:46:01;13.77;;;9.03;;
50213;SDS011;36103;54.176;12.070;2022-12-05T01:47:02;12.70;;;8.77;;
50213;SDS011;36103;54.176;12.070;2022-12-05T01:48:04;12.90;;;8.80;;
50213;SDS011;36103;54.176;12.070;2022-12-05T01:49:06;13.37;;;8.57;;
50213;SDS011;36103;54.176;12.070;2022-12-05T01:50:09;15.13;;;9.87;;
50213;SDS011;36103;54.176;12.070;2022-12-05T01:51:11;13.57;;;8.97;;
50213;SDS011;36103;54.176;12.070;2022-12-05T01:52:12;13.93;;;9.33;;
50213;SDS011;36103;54.176;12.070;2022-12-05T01:53:17;13.57;;;9.50;;
50213;SDS011;36103;54.176;12.070;2022-12-05T01:54:18;13.20;;;9.50;;
50213;SDS011;36103;54.176;12.070;2022-12-05T01:55:20;13.83;;;9.03;;
50213;SDS011;36103;54.176;12.070;2022-12-05T01:56:20;13.97;;;8.87;;
50213;SDS011;36103;54.176;12.070;2022-12-05T01:57:22;13.37;;;9.13;;
50213;SDS011;36103;54.176;12.070;2022-12-05T01:58:23;12.23;;;8.63;;
50213;SDS011;36103;54.176;12.070;2022-12-05T01:59:29;12.57;;;9.40;;
50213;SDS011;36103;54.176;12.070;2022-12-05T02:00:31;13.57;;;9.37;;
50213;SDS011;36103;54.176;12.070;2022-12-05T02:01:33;12.83;;;9.37;;
50213;SDS011;36103;54.176;12.070;2022-12-05T02:02:34;14.17;;;9.03;;
50213;SDS011;36103;54.176;12.070;2022-12-05T02:03:35;13.07;;;9.67;;
50213;SDS011;36103;54.176;12.070;2022-12-05T02:04:38;10.20;;;8.13;;
50213;SDS011;36103;54.176;12.070;2022-12-05T02:05:43;15.70;;;9.67;;
50213;SDS011;36103;54.176;12.070;2022-12-05T02:06:46;12.00;;;8.37;;
50213;SDS011;36103;54.176;12.070;2022-12-05T02:07:48;15.80;;;8.83;;
50213;SDS011;36103;54.176;12.070;2022-12-05T02:08:50;13.17;;;9.37;;
50213;SDS011;36103;54.176;12.070;2022-12-05T02:09:52;12.67;;;9.00;;
50213;SDS011;36103;54.176;12.070;2022-12-05T02:10:53;13.77;;;8.53;;
50213;SDS011;36103;54.176;12.070;2022-12-05T02:11:56;12.70;;;8.77;;
50213;SDS011;36103;54.176;12.070;2022-12-05T02:12:59;14.03;;;9.37;;
50213;SDS011;36103;54.176;12.070;2022-12-05T02:14:08;13.03;;;9.40;;
50213;SDS011;36103;54.176;12.070;2022-12-05T02:15:27;16.47;;;9.37;;
50213;SDS011;36103;54.176;12.070;2022-12-05T02:16:39;14.80;;;9.43;;
50213;SDS011;36103;54.176;12.070;2022-12-05T02:17:50;12.43;;;8.97;;
50213;SDS011;36103;54.176;12.070;2022-12-05T02:18:56;13.43;;;9.07;;
50213;SDS011;36103;54.176;12.070;2022-12-05T02:20:10;12.30;;;8.37;;
50213;SDS011;36103;54.176;12.070;2022-12-05T02:21:39;13.57;;;9.13;;
50213;SDS011;36103;54.176;12.070;2022-12-05T02:22:56;13.90;;;9.33;;
50213;SDS011;36103;54.176;12.070;2022-12-05T02:24:14;13.90;;;8.67;;
50213;SDS011;36103;54.176;12.070;2022-12-05T02:26:55;14.43;;;8.90;;
50213;SDS011;36103;54.176;12.070;2022-12-05T02:29:41;12.83;;;8.77;;
50213;SDS011;36103;54.176;12.070;2022-12-05T02:31:02;13.07;;;8.97;;
50213;SDS011;36103;54.176;12.070;2022-12-05T02:32:08;11.47;;;8.90;;
50213;SDS011;36103;54.176;12.070;2022-12-05T02:33:13;14.47;;;9.23;;
50213;SDS011;36103;54.176;12.070;2022-12-05T02:34:18;13.37;;;8.30;;
50213;SDS011;36103;54.176;12.070;2022-12-05T02:35:26;13.13;;;8.83;;
50213;SDS011;36103;54.176;12.070;2022-12-05T02:36:34;13.27;;;8.80;;
50213;SDS011;36103;54.176;12.070;2022-12-05T02:37:39;11.43;;;8.87;;
50213;SDS011;36103;54.176;12.070;2022-12-05T02:38:43;13.57;;;9.17;;
50213;SDS011;36103;54.176;12.070;2022-12-05T02:39:50;13.33;;;9.03;;
50213;SDS011;36103;54.176;12.070;2022-12-05T02:40:54;13.73;;;9.27;;
50213;SDS011;36103;54.176;12.070;2022-12-05T02:42:02;12.10;;;8.53;;
50213;SDS011;36103;54.176;12.070;2022-12-05T02:43:05;14.30;;;8.53;;
50213;SDS011;36103;54.176;12.070;2022-12-05T02:44:09;11.73;;;8.53;;
50213;SDS011;36103;54.176;12.070;2022-12-05T02:45:15;12.53;;;8.83;;
50213;SDS011;36103;54.176;12.070;2022-12-05T02:46:18;13.47;;;9.20;;
50213;SDS011;36103;54.176;12.070;2022-12-05T02:47:21;11.43;;;8.43;;
50213;SDS011;36103;54.176;12.070;2022-12-05T02:48:24;13.63;;;8.90;;
50213;SDS011;36103;54.176;12.070;2022-12-05T02:49:29;12.57;;;8.93;;
50213;SDS011;36103;54.176;12.070;2022-12-05T02:50:32;13.40;;;8.93;;
50213;SDS011;36103;54.176;12.070;2022-12-05T02:51:37;11.87;;;8.67;;
50213;SDS011;36103;54.176;12.070;2022-12-05T02:52:41;11.63;;;8.50;;
50213;SDS011;36103;54.176;12.070;2022-12-05T02:53:42;11.73;;;8.30;;
50213;SDS011;36103;54.176;12.070;2022-12-05T02:54:45;11.67;;;8.43;;
50213;SDS011;36103;54.176;12.070;2022-12-05T02:55:47;12.30;;;9.07;;
50213;SDS011;36103;54.176;12.070;2022-12-05T02:56:49;11.40;;;7.93;;
50213;SDS011;36103;54.176;12.070;2022-12-05T02:57:51;13.30;;;9.47;;
50213;SDS011;36103;54.176;12.070;2022-12-05T02:58:54;13.73;;;8.60;;
50213;SDS011;36103;54.176;12.070;2022-12-05T02:59:55;12.50;;;8.27;;
50213;SDS011;36103;54.176;12.070;2022-12-05T03:00:58;12.40;;;8.80;;
50213;SDS011;36103;54.176;12.070;2022-12-05T03:01:58;13.33;;;8.27;;
50213;SDS011;36103;54.176;12.070;2022-12-05T03:03:00;12.17;;;8.53;;
50213;SDS011;36103;54.176;12.070;2022-12-05T03:04:01;12.10;;;9.20;;
50213;SDS011;36103;54.176;12.070;2022-12-05T03:05:08;13.10;;;8.40;;
50213;SDS011;36103;54.176;12.070;2022-12-05T03:06:15;13.07;;;9.13;;
50213;SDS011;36103;54.176;12.070;2022-12-05T03:07:18;13.07;;;8.70;;
50213;SDS011;36103;54.176;12.070;2022-12-05T03:08:21;11.13;;;8.30;;
50213;SDS011;36103;54.176;12.070;2022-12-05T03:09:26;12.73;;;8.73;;
50213;SDS011;36103;54.176;12.070;2022-12-05T03:10:28;12.63;;;8.30;;
50213;SDS011;36103;54.176;12.070;2022-12-05T03:11:32;13.37;;;9.23;;
50213;SDS011;36103;54.176;12.070;2022-12-05T03:12:40;11.40;;;8.57;;
50213;SDS011;36103;54.176;12.070;2022-12-05T03:13:44;13.57;;;8.70;;
50213;SDS011;36103;54.176;12.070;2022-12-05T03:14:48;12.30;;;9.03;;
50213;SDS011;36103;54.176;12.070;2022-12-05T03:15:55;13.60;;;9.00;;
50213;SDS011;36103;54.176;12.070;2022-12-05T03:17:00;13.67;;;8.83;;
50213;SDS011;36103;54.176;12.070;2022-12-05T03:18:03;12.30;;;8.47;;
50213;SDS011;36103;54.176;12.070;2022-12-05T03:19:10;14.43;;;9.40;;
50213;SDS011;36103;54.176;12.070;2022-12-05T03:20:12;13.17;;;9.30;;
50213;SDS011;36103;54.176;12.070;2022-12-05T03:21:20;12.13;;;8.43;;
50213;SDS011;36103;54.176;12.070;2022-12-05T03:22:26;11.93;;;8.03;;
50213;SDS011;36103;54.176;12.070;2022-12-05T03:23:32;12.07;;;8.80;;
50213;SDS011;36103;54.176;12.070;2022-12-05T03:24:35;12.07;;;8.47;;
50213;SDS011;36103;54.176;12.070;2022-12-05T03:25:39;12.50;;;8.57;;
50213;SDS011;36103;54.176;12.070;2022-12-05T03:26:49;13.70;;;9.03;;
50213;SDS011;36103;54.176;12.070;2022-12-05T03:27:56;12.77;;;8.80;;
50213;SDS011;36103;54.176;12.070;2022-12-05T03:29:02;12.00;;;8.60;;
50213;SDS011;36103;54.176;12.070;2022-12-05T03:30:16;10.47;;;7.93;;
50213;SDS011;36103;54.176;12.070;2022-12-05T03:31:20;10.70;;;8.30;;
50213;SDS011;36103;54.176;12.070;2022-12-05T03:32:26;12.27;;;8.37;;
50213;SDS011;36103;54.176;12.070;2022-12-05T03:33:32;10.37;;;8.10;;
50213;SDS011;36103;54.176;12.070;2022-12-05T03:34:41;10.43;;;7.83;;
50213;SDS011;36103;54.176;12.070;2022-12-05T03:35:48;11.30;;;8.00;;
50213;SDS011;36103;54.176;12.070;2022-12-05T03:36:52;13.27;;;9.30;;
50213;SDS011;36103;54.176;12.070;2022-12-05T03:37:55;11.03;;;8.27;;
50213;SDS011;36103;54.176;12.070;2022-12-05T03:39:01;9.77;;;7.73;;
50213;SDS011;36103;54.176;12.070;2022-12-05T03:40:07;12.77;;;8.17;;
50213;SDS011;36103;54.176;12.070;2022-12-05T03:41:13;11.73;;;8.30;;
50213;SDS011;36103;54.176;12.070;2022-12-05T03:42:21;11.50;;;8.53;;
50213;SDS011;36103;54.176;12.070;2022-12-05T03:43:28;11.77;;;8.00;;
50213;SDS011;36103;54.176;12.070;2022-12-05T03:44:35;12.37;;;8.50;;
50213;SDS011;36103;54.176;12.070;2022-12-05T03:45:41;12.20;;;8.33;;
50213;SDS011;36103;54.176;12.070;2022-12-05T03:46:47;12.40;;;8.27;;
50213;SDS011;36103;54.176;12.070;2022-12-05T03:47:54;11.77;;;7.93;;
50213;SDS011;36103;54.176;12.070;2022-12-05T03:48:58;11.77;;;8.40;;
50213;SDS011;36103;54.176;12.070;2022-12-05T03:50:02;11.07;;;8.43;;
50213;SDS011;36103;54.176;12.070;2022-12-05T03:51:10;13.10;;;9.60;;
50213;SDS011;36103;54.176;12.070;2022-12-05T03:52:12;13.50;;;9.23;;
50213;SDS011;36103;54.176;12.070;2022-12-05T03:53:16;11.13;;;8.60;;
50213;SDS011;36103;54.176;12.070;2022-12-05T03:54:21;12.10;;;8.47;;
50213;SDS011;36103;54.176;12.070;2022-12-05T03:55:25;12.53;;;8.80;;
50213;SDS011;36103;54.176;12.070;2022-12-05T03:56:29;10.97;;;8.50;;
50213;SDS011;36103;54.176;12.070;2022-12-05T03:57:35;11.60;;;8.43;;
50213;SDS011;36103;54.176;12.070;2022-12-05T03:58:38;12.50;;;8.43;;
50213;SDS011;36103;54.176;12.070;2022-12-05T03:59:43;12.07;;;8.40;;
50213;SDS011;36103;54.176;12.070;2022-12-05T04:00:46;11.90;;;8.43;;
50213;SDS011;36103;54.176;12.070;2022-12-05T04:01:50;10.50;;;8.07;;
50213;SDS011;36103;54.176;12.070;2022-12-05T04:02:52;11.23;;;7.80;;
50213;SDS011;36103;54.176;12.070;2022-12-05T04:03:56;11.57;;;8.50;;
50213;SDS011;36103;54.176;12.070;2022-12-05T04:05:00;9.63;;;7.77;;
50213;SDS011;36103;54.176;12.070;2022-12-05T04:06:05;10.93;;;7.70;;
50213;SDS011;36103;54.176;12.070;2022-12-05T04:07:09;11.80;;;8.27;;
50213;SDS011;36103;54.176;12.070;2022-12-05T04:08:12;11.57;;;8.00;;
50213;SDS011;36103;54.176;12.070;2022-12-05T04:09:17;10.83;;;7.70;;
50213;SDS011;36103;54.176;12.070;2022-12-05T04:10:21;10.53;;;7.50;;
50213;SDS011;36103;54.176;12.070;2022-12-05T04:11:24;12.53;;;8.00;;
50213;SDS011;36103;54.176;12.070;2022-12-05T04:12:28;11.60;;;8.00;;
50213;SDS011;36103;54.176;12.070;2022-12-05T04:13:31;11.37;;;8.37;;
50213;SDS011;36103;54.176;12.070;2022-12-05T04:14:36;10.03;;;7.43;;
50213;SDS011;36103;54.176;12.070;2022-12-05T04:15:38;11.47;;;8.03;;
50213;SDS011;36103;54.176;12.070;2022-12-05T04:16:55;9.83;;;7.70;;
50213;SDS011;36103;54.176;12.070;2022-12-05T04:18:08;12.13;;;8.40;;
50213;SDS011;36103;54.176;12.070;2022-12-05T04:19:12;11.77;;;8.90;;
50213;SDS011;36103;54.176;12.070;2022-12-05T04:20:16;11.30;;;8.37;;
50213;SDS011;36103;54.176;12.070;2022-12-05T04:21:36;11.57;;;8.40;;
50213;SDS011;36103;54.176;12.070;2022-12-05T04:22:41;12.40;;;8.33;;
50213;SDS011;36103;54.176;12.070;2022-12-05T04:23:42;10.33;;;7.87;;
50213;SDS011;36103;54.176;12.070;2022-12-05T04:25:04;11.27;;;8.03;;
50213;SDS011;36103;54.176;12.070;2022-12-05T04:26:27;11.13;;;7.70;;
50213;SDS011;36103;54.176;12.070;2022-12-05T04:27:31;10.97;;;7.87;;
50213;SDS011;36103;54.176;12.070;2022-12-05T04:28:38;10.67;;;7.43;;
50213;SDS011;36103;54.176;12.070;2022-12-05T04:29:43;11.00;;;8.23;;
50213;SDS011;36103;54.176;12.070;2022-12-05T04:30:45;12.50;;;7.97;;
50213;SDS011;36103;54.176;12.070;2022-12-05T04:31:51;11.10;;;8.53;;
50213;SDS011;36103;54.176;12.070;2022-12-05T04:33:00;10.03;;;7.90;;
50213;SDS011;36103;54.176;12.070;2022-12-05T04:34:03;11.07;;;7.83;;
50213;SDS011;36103;54.176;12.070;2022-12-05T04:35:08;10.63;;;7.80;;
50213;SDS011;36103;54.176;12.070;2022-12-05T04:36:12;12.37;;;7.57;;
50213;SDS011;36103;54.176;12.070;2022-12-05T04:37:15;11.87;;;8.37;;
50213;SDS011;36103;54.176;12.070;2022-12-05T04:38:19;10.93;;;8.47;;
50213;SDS011;36103;54.176;12.070;2022-12-05T04:39:24;11.17;;;7.47;;
50213;SDS011;36103;54.176;12.070;2022-12-05T04:40:27;10.77;;;7.80;;
50213;SDS011;36103;54.176;12.070;2022-12-05T04:41:32;11.13;;;8.07;;
50213;SDS011;36103;54.176;12.070;2022-12-05T04:42:33;12.33;;;8.53;;
50213;SDS011;36103;54.176;12.070;2022-12-05T04:43:38;9.53;;;7.90;;
50213;SDS011;36103;54.176;12.070;2022-12-05T04:44:42;10.90;;;8.27;;
50213;SDS011;36103;54.176;12.070;2022-12-05T04:45:46;10.47;;;8.20;;
50213;SDS011;36103;54.176;12.070;2022-12-05T04:46:48;10.40;;;7.50;;
50213;SDS011;36103;54.176;12.070;2022-12-05T04:47:50;9.97;;;7.90;;
50213;SDS011;36103;54.176;12.070;2022-12-05T04:48:57;11.00;;;8.03;;
50213;SDS011;36103;54.176;12.070;2022-12-05T04:50:00;10.93;;;7.87;;
50213;SDS011;36103;54.176;12.070;2022-12-05T04:51:03;11.90;;;7.67;;
50213;SDS011;36103;54.176;12.070;2022-12-05T04:52:06;11.57;;;8.50;;
50213;SDS011;36103;54.176;12.070;2022-12-05T04:53:08;11.60;;;8.33;;
50213;SDS011;36103;54.176;12.070;2022-12-05T04:54:10;11.23;;;8.07;;
50213;SDS011;36103;54.176;12.070;2022-12-05T04:55:16;11.20;;;7.57;;
50213;SDS011;36103;54.176;12.070;2022-12-05T04:56:19;8.77;;;7.23;;
50213;SDS011;36103;54.176;12.070;2022-12-05T04:57:23;11.50;;;7.90;;
50213;SDS011;36103;54.176;12.070;2022-12-05T04:58:26;12.00;;;8.47;;
50213;SDS011;36103;54.176;12.070;2022-12-05T04:59:28;10.63;;;8.20;;
50213;SDS011;36103;54.176;12.070;2022-12-05T05:00:29;10.93;;;7.63;;
50213;SDS011;36103;54.176;12.070;2022-12-05T05:01:33;11.93;;;8.00;;
50213;SDS011;36103;54.176;12.070;2022-12-05T05:02:37;10.93;;;8.53;;
50213;SDS011;36103;54.176;12.070;2022-12-05T05:03:41;9.67;;;7.90;;
50213;SDS011;36103;54.176;12.070;2022-12-05T05:04:45;11.00;;;7.77;;
50213;SDS011;36103;54.176;12.070;2022-12-05T05:05:48;12.97;;;8.33;;
50213;SDS011;36103;54.176;12.070;2022-12-05T05:06:50;10.90;;;7.90;;
50213;SDS011;36103;54.176;12.070;2022-12-05T05:07:52;11.60;;;7.97;;
50213;SDS011;36103;54.176;12.070;2022-12-05T05:08:54;11.60;;;7.87;;
50213;SDS011;36103;54.176;12.070;2022-12-05T05:09:57;12.13;;;8.13;;
50213;SDS011;36103;54.176;12.070;2022-12-05T05:11:00;9.60;;;7.47;;
50213;SDS011;36103;54.176;12.070;2022-12-05T05:12:05;10.67;;;8.10;;
50213;SDS011;36103;54.176;12.070;2022-12-05T05:13:06;11.43;;;8.33;;
50213;SDS011;36103;54.176;12.070;2022-12-05T05:14:07;10.73;;;8.10;;
50213;SDS011;36103;54.176;12.070;2022-12-05T05:15:08;11.90;;;8.27;;
50213;SDS011;36103;54.176;12.070;2022-12-05T05:16:12;11.57;;;8.13;;
50213;SDS011;36103;54.176;12.070;2022-12-05T05:17:13;10.67;;;8.43;;
50213;SDS011;36103;54.176;12.070;2022-12-05T05:18:14;11.27;;;8.07;;
50213;SDS011;36103;54.176;12.070;2022-12-05T05:19:15;11.63;;;8.27;;
50213;SDS011;36103;54.176;12.070;2022-12-05T05:20:18;12.13;;;8.27;;
50213;SDS011;36103;54.176;12.070;2022-12-05T05:21:26;10.53;;;7.57;;
50213;SDS011;36103;54.176;12.070;2022-12-05T05:22:28;12.27;;;7.87;;
50213;SDS011;36103;54.176;12.070;2022-12-05T05:23:29;10.70;;;7.77;;
50213;SDS011;36103;54.176;12.070;2022-12-05T05:24:30;10.30;;;7.60;;
50213;SDS011;36103;54.176;12.070;2022-12-05T05:25:31;10.37;;;7.27;;
50213;SDS011;36103;54.176;12.070;2022-12-05T05:26:33;10.10;;;7.53;;
50213;SDS011;36103;54.176;12.070;2022-12-05T05:27:35;10.80;;;7.50;;
50213;SDS011;36103;54.176;12.070;2022-12-05T05:28:36;11.30;;;8.20;;
50213;SDS011;36103;54.176;12.070;2022-12-05T05:29:36;11.60;;;7.77;;
50213;SDS011;36103;54.176;12.070;2022-12-05T05:30:38;10.17;;;7.00;;
50213;SDS011;36103;54.176;12.070;2022-12-05T05:31:38;10.43;;;7.43;;
50213;SDS011;36103;54.176;12.070;2022-12-05T05:32:40;10.77;;;7.67;;
50213;SDS011;36103;54.176;12.070;2022-12-05T05:33:41;10.87;;;7.90;;
50213;SDS011;36103;54.176;12.070;2022-12-05T05:34:42;9.97;;;7.93;;
50213;SDS011;36103;54.176;12.070;2022-12-05T05:35:45;10.87;;;8.30;;
50213;SDS011;36103;54.176;12.070;2022-12-05T05:36:49;11.87;;;8.10;;
50213;SDS011;36103;54.176;12.070;2022-12-05T05:37:51;12.53;;;8.50;;
50213;SDS011;36103;54.176;12.070;2022-12-05T05:38:52;12.77;;;7.80;;
50213;SDS011;36103;54.176;12.070;2022-12-05T05:39:54;9.60;;;7.77;;
50213;SDS011;36103;54.176;12.070;2022-12-05T05:40:54;13.23;;;8.50;;
50213;SDS011;36103;54.176;12.070;2022-12-05T05:41:56;11.40;;;7.67;;
50213;SDS011;36103;54.176;12.070;2022-12-05T05:42:57;9.30;;;7.60;;
50213;SDS011;36103;54.176;12.070;2022-12-05T05:43:58;9.23;;;7.10;;
50213;SDS011;36103;54.176;12.070;2022-12-05T05:44:59;10.57;;;7.93;;
50213;SDS011;36103;54.176;12.070;2022-12-05T05:46:01;9.60;;;7.33;;
50213;SDS011;36103;54.176;12.070;2022-12-05T05:47:03;9.57;;;7.60;;
50213;SDS011;36103;54.176;12.070;2022-12-05T05:48:04;11.40;;;8.40;;
50213;SDS011;36103;54.176;12.070;2022-12-05T05:49:05;11.40;;;8.07;;
50213;SDS011;36103;54.176;12.070;2022-12-05T05:50:06;9.97;;;7.13;;
50213;SDS011;36103;54.176;12.070;2022-12-05T05:51:10;9.40;;;7.67;;
50213;SDS011;36103;54.176;12.070;2022-12-05T05:52:11;9.80;;;7.40;;
50213;SDS011;36103;54.176;12.070;2022-12-05T05:53:14;10.00;;;7.40;;
50213;SDS011;36103;54.176;12.070;2022-12-05T05:54:14;11.40;;;7.70;;
50213;SDS011;36103;54.176;12.070;2022-12-05T05:55:16;10.63;;;7.50;;
50213;SDS011;36103;54.176;12.070;2022-12-05T05:56:17;10.97;;;7.73;;
50213;SDS011;36103;54.176;12.070;2022-12-05T05:57:19;10.37;;;7.80;;
50213;SDS011;36103;54.176;12.070;2022-12-05T05:58:20;11.10;;;8.00;;
50213;SDS011;36103;54.176;12.070;2022-12-05T05:59:21;11.13;;;7.90;;
50213;SDS011;36103;54.176;12.070;2022-12-05T06:00:23;9.43;;;7.30;;
50213;SDS011;36103;54.176;12.070;2022-12-05T06:01:24;10.70;;;7.67;;
50213;SDS011;36103;54.176;12.070;2022-12-05T06:02:25;11.67;;;8.07;;
50213;SDS011;36103;54.176;12.070;2022-12-05T06:03:26;10.37;;;7.50;;
50213;SDS011;36103;54.176;12.070;2022-12-05T06:04:27;10.03;;;7.90;;
50213;SDS011;36103;54.176;12.070;2022-12-05T06:05:28;10.77;;;7.97;;
50213;SDS011;36103;54.176;12.070;2022-12-05T06:06:30;10.63;;;7.80;;
50213;SDS011;36103;54.176;12.070;2022-12-05T06:07:31;9.73;;;7.43;;
50213;SDS011;36103;54.176;12.070;2022-12-05T06:08:32;9.53;;;6.87;;
50213;SDS011;36103;54.176;12.070;2022-12-05T06:09:34;8.90;;;7.30;;
50213;SDS011;36103;54.176;12.070;2022-12-05T06:10:36;10.23;;;7.37;;
50213;SDS011;36103;54.176;12.070;2022-12-05T06:11:38;9.93;;;7.13;;
50213;SDS011;36103;54.176;12.070;2022-12-05T06:12:38;9.90;;;7.33;;
50213;SDS011;36103;54.176;12.070;2022-12-05T06:13:40;9.13;;;6.93;;